createdAt,value
2023-02-21T00:00:06.204Z,5.93
2023-02-21T00:07:12.770Z,6.55
2023-02-21T00:14:13.729Z,6.28
2023-02-21T00:21:15.090Z,6.97
2023-02-21T00:28:19.029Z,6.70
2023-02-21T00:35:20.272Z,6.75
2023-02-21T00:42:21.182Z,5.82
2023-02-21T00:49:22.759Z,6.53
2023-02-21T00:56:24.911Z,7.05
2023-02-21T01:03:26.618Z,6.60
2023-02-21T01:10:27.405Z,7.95
2023-02-21T01:17:28.408Z,7.15
2023-02-21T01:24:34.038Z,7.35
2023-02-21T01:31:39.011Z,6.18
2023-02-21T01:38:40.389Z,6.43
2023-02-21T01:45:41.341Z,6.45
2023-02-21T01:52:43.857Z,6.00
2023-02-21T01:59:45.738Z,5.43
2023-02-21T02:06:46.860Z,6.35
2023-02-21T02:13:48.544Z,6.75
2023-02-21T02:21:08.285Z,6.18
2023-02-21T02:28:22.747Z,6.40
2023-02-21T02:35:22.159Z,5.43
2023-02-21T02:42:39.550Z,5.85
2023-02-21T02:49:24.934Z,5.10
2023-02-21T02:56:13.532Z,6.03
2023-02-21T03:03:25.037Z,6.00
2023-02-21T03:10:35.378Z,6.40
2023-02-21T03:17:21.085Z,6.55
2023-02-21T03:24:05.225Z,6.35
2023-02-21T03:30:53.184Z,6.32
2023-02-21T03:37:45.355Z,6.00
2023-02-21T03:44:28.370Z,5.68
2023-02-21T03:51:11.073Z,6.88
2023-02-21T03:57:53.615Z,5.50
2023-02-21T04:04:36.431Z,6.18
2023-02-21T04:11:28.754Z,6.30
2023-02-21T04:18:11.117Z,6.72
2023-02-21T04:24:54.575Z,5.85
2023-02-21T04:31:38.981Z,6.70
2023-02-21T04:38:26.153Z,5.68
2023-02-21T04:45:09.068Z,6.63
2023-02-21T04:51:52.277Z,6.28
2023-02-21T04:58:44.709Z,6.45
2023-02-21T05:05:27.765Z,6.90
2023-02-21T05:12:12.024Z,7.00
2023-02-21T05:18:54.727Z,7.55
2023-02-21T05:25:37.041Z,10.20
2023-02-21T05:32:21.297Z,8.70
2023-02-21T05:39:04.726Z,9.18
2023-02-21T05:45:47.177Z,8.40
2023-02-21T05:52:29.541Z,8.75
2023-02-21T05:59:12.519Z,9.52
2023-02-21T06:05:54.841Z,7.95
2023-02-21T06:12:37.284Z,7.68
2023-02-21T06:19:19.701Z,8.27
2023-02-21T06:26:02.068Z,6.90
2023-02-21T06:32:44.423Z,7.57
2023-02-21T06:39:26.729Z,7.45
2023-02-21T06:46:09.135Z,7.05
2023-02-21T06:52:51.843Z,7.20
2023-02-21T06:59:34.146Z,8.60
2023-02-21T07:06:16.557Z,7.25
2023-02-21T07:12:58.903Z,7.32
2023-02-21T07:19:42.175Z,8.10
2023-02-21T07:26:24.577Z,7.40
2023-02-21T07:33:06.995Z,7.55
2023-02-21T07:39:49.445Z,8.50
2023-02-21T07:46:34.438Z,8.48
2023-02-21T07:53:17.212Z,8.25
2023-02-21T07:59:59.479Z,7.82
2023-02-21T08:06:41.814Z,7.57
2023-02-21T08:13:24.191Z,6.95
2023-02-21T08:20:08.230Z,7.80
2023-02-21T08:26:50.548Z,7.65
2023-02-21T08:33:32.842Z,7.32
2023-02-21T08:40:18.605Z,7.45
2023-02-21T08:47:01.264Z,6.65
2023-02-21T08:53:43.580Z,6.40
2023-02-21T09:00:28.375Z,7.10
2023-02-21T09:07:15.755Z,6.80
2023-02-21T09:13:58.048Z,6.45
2023-02-21T09:20:42.269Z,6.13
2023-02-21T09:27:36.450Z,6.40
2023-02-21T09:34:19.770Z,6.80
2023-02-21T09:41:06.495Z,5.95
2023-02-21T09:47:54.439Z,5.40
2023-02-21T09:54:47.488Z,5.57
2023-02-21T10:01:58.220Z,5.30
2023-02-21T10:09:08.298Z,6.18
2023-02-21T10:16:18.649Z,4.65
2023-02-21T10:23:03.663Z,4.75
2023-02-21T10:30:26.813Z,4.95
2023-02-21T10:38:00.787Z,4.50
2023-02-21T10:44:43.698Z,3.95
2023-02-21T10:51:32.613Z,3.72
2023-02-21T10:58:22.678Z,3.42
2023-02-21T11:05:15.712Z,3.25
2023-02-21T11:12:16.044Z,3.53
2023-02-21T11:19:07.089Z,3.08
2023-02-21T11:25:51.602Z,3.10
2023-02-21T11:32:40.500Z,2.97
2023-02-21T11:39:27.846Z,2.60
2023-02-21T11:46:13.059Z,2.50
2023-02-21T11:53:15.014Z,2.30
2023-02-21T12:00:15.496Z,2.10
2023-02-21T12:07:12.176Z,2.42
2023-02-21T12:14:09.698Z,2.53
2023-02-21T12:20:57.734Z,2.50
2023-02-21T12:28:04.454Z,3.03
2023-02-21T12:35:03.561Z,5.60
2023-02-21T12:42:12.116Z,1.80
2023-02-21T12:49:19.312Z,1.95
2023-02-21T12:56:44.872Z,2.28
2023-02-21T13:03:40.388Z,1.67
2023-02-21T13:10:27.781Z,2.00
2023-02-21T13:17:16.805Z,1.63
2023-02-21T13:24:21.019Z,1.50
2023-02-21T13:31:28.923Z,1.50
2023-02-21T13:38:12.274Z,1.60
2023-02-21T13:45:15.064Z,1.60
2023-02-21T13:52:24.378Z,1.95
2023-02-21T13:59:33.048Z,2.20
2023-02-21T14:06:31.785Z,1.58
2023-02-21T14:13:38.930Z,1.63
2023-02-21T14:20:23.194Z,1.45
2023-02-21T14:27:25.762Z,1.60
2023-02-21T14:34:11.717Z,1.40
2023-02-21T14:41:23.707Z,1.35
2023-02-21T14:48:32.148Z,1.30
2023-02-21T14:55:24.244Z,1.45
2023-02-21T15:02:38.700Z,1.40
2023-02-21T15:09:21.886Z,1.27
2023-02-21T15:16:09.991Z,1.45
2023-02-21T15:22:57.180Z,1.15
2023-02-21T15:29:40.709Z,1.90
2023-02-21T15:36:23.871Z,1.40
2023-02-21T15:43:07.583Z,1.73
2023-02-21T15:50:27.507Z,2.10
2023-02-21T15:57:11.407Z,1.98
2023-02-21T16:04:17.919Z,2.17
2023-02-21T16:11:04.432Z,2.00
2023-02-21T16:17:53.963Z,2.65
2023-02-21T16:24:37.592Z,2.30
2023-02-21T16:31:30.544Z,2.35
2023-02-21T16:38:19.182Z,3.42
2023-02-21T16:45:01.542Z,2.15
2023-02-21T16:51:44.061Z,2.13
2023-02-21T16:58:33.651Z,3.20
2023-02-21T17:05:17.287Z,3.08
2023-02-21T17:12:02.995Z,3.03
2023-02-21T17:18:45.507Z,3.63
2023-02-21T17:25:29.159Z,3.90
2023-02-21T17:32:11.438Z,4.32
2023-02-21T17:38:54.211Z,4.95
2023-02-21T17:45:36.554Z,4.15
2023-02-21T17:52:18.847Z,5.40
2023-02-21T17:59:01.585Z,5.40
2023-02-21T18:05:43.986Z,5.70
2023-02-21T18:12:26.436Z,4.93
2023-02-21T18:19:08.983Z,5.55
2023-02-21T18:25:51.280Z,6.18
2023-02-21T18:32:33.725Z,6.47
2023-02-21T18:39:17.680Z,7.32
2023-02-21T18:46:00.003Z,5.68
2023-02-21T18:52:42.314Z,6.18
2023-02-21T18:59:25.036Z,6.60
2023-02-21T19:06:16.490Z,5.00
2023-02-21T19:12:59.415Z,7.10
2023-02-21T19:19:41.780Z,7.05
2023-02-21T19:26:28.233Z,6.20
2023-02-21T19:33:11.831Z,6.22
2023-02-21T19:39:54.240Z,7.68
2023-02-21T19:46:36.651Z,6.32
2023-02-21T19:53:19.200Z,7.07
2023-02-21T20:00:01.634Z,7.32
2023-02-21T20:06:43.951Z,7.25
2023-02-21T20:13:26.323Z,7.43
2023-02-21T20:20:11.851Z,7.88
2023-02-21T20:26:54.610Z,7.13
2023-02-21T20:33:37.689Z,6.22
2023-02-21T20:40:20.438Z,6.90
2023-02-21T20:47:04.247Z,6.97
2023-02-21T20:53:46.660Z,6.95
2023-02-21T21:00:30.260Z,6.28
2023-02-21T21:07:19.509Z,7.22
2023-02-21T21:14:03.034Z,6.50
2023-02-21T21:20:45.415Z,7.70
2023-02-21T21:27:27.932Z,7.25
2023-02-21T21:34:10.415Z,7.43
2023-02-21T21:40:55.012Z,8.43
2023-02-21T21:47:37.291Z,7.65
2023-02-21T21:54:25.439Z,7.75
2023-02-21T22:01:07.910Z,7.45
2023-02-21T22:07:52.143Z,8.77
2023-02-21T22:14:35.094Z,9.02
2023-02-21T22:21:17.692Z,8.98
2023-02-21T22:28:09.787Z,8.20
2023-02-21T22:34:52.052Z,8.80
2023-02-21T22:41:34.358Z,8.07
2023-02-21T22:48:20.167Z,9.30
2023-02-21T22:55:03.085Z,8.63
2023-02-21T23:01:45.363Z,9.25
2023-02-21T23:08:29.276Z,9.27
2023-02-21T23:15:18.332Z,8.45
2023-02-21T23:22:01.323Z,10.75
2023-02-21T23:28:43.818Z,9.25
2023-02-21T23:35:27.790Z,9.75
2023-02-21T23:42:10.867Z,8.57
2023-02-21T23:48:53.629Z,9.55
2023-02-21T23:55:36.130Z,9.15
